Time;durP1;ratioP1;P1;durP2;ratioP2;P2;SDS_P1;SDS_P2;PMS_P1;PMS_P2;Temp;Humidity;BMP_temperature;BMP_pressure;BME280_temperature;BME280_humidity;BME280_pressure;Samples;Min_cycle;Max_cycle;Signal;HPM_P1;HPM_P2
2023/09/26 00:01:41;;;;;;;3.60;2.50;;;19.10;90.60;;;;;;5048102;28;20191;-89
2023/09/26 00:04:07;;;;;;;3.83;2.50;;;19.10;90.60;;;;;;5037721;28;20182;-89
2023/09/26 00:06:33;;;;;;;2.57;2.20;;;19.10;90.60;;;;;;5061316;28;20206;-88
2023/09/26 00:08:58;;;;;;;4.27;2.43;;;19.10;90.60;;;;;;5056372;28;20164;-88
2023/09/26 00:11:24;;;;;;;3.37;2.63;;;19.10;90.70;;;;;;5043145;28;20263;-88
2023/09/26 00:13:50;;;;;;;3.13;2.40;;;19.10;90.80;;;;;;5055716;28;20233;-89
2023/09/26 00:16:16;;;;;;;3.43;2.20;;;19.10;90.70;;;;;;5043269;28;20221;-89
2023/09/26 00:18:42;;;;;;;3.50;2.40;;;19.10;90.70;;;;;;5053016;28;20171;-89
2023/09/26 00:21:12;;;;;;;3.20;2.40;;;19.10;90.70;;;;;;5045519;28;20268;-88
2023/09/26 00:23:38;;;;;;;4.37;2.33;;;19.10;90.70;;;;;;5051869;28;20427;-88
2023/09/26 00:26:07;;;;;;;3.10;2.30;;;19.10;90.80;;;;;;5047250;28;20176;-88
2023/09/26 00:28:33;;;;;;;2.30;1.80;;;19.10;90.80;;;;;;5048010;28;20229;-88
2023/09/26 00:31:03;;;;;;;3.00;2.37;;;19.00;90.80;;;;;;5048735;28;20172;-89
2023/09/26 00:33:29;;;;;;;2.10;1.90;;;19.00;90.80;;;;;;5045599;28;20183;-89
2023/09/26 00:35:55;;;;;;;3.17;2.13;;;19.00;90.80;;;;;;5049519;28;20168;-89
2023/09/26 00:38:22;;;;;;;2.87;2.20;;;19.00;90.80;;;;;;5071404;28;20185;-88
2023/09/26 00:40:48;;;;;;;2.97;2.40;;;19.00;90.80;;;;;;5052490;28;20433;-89
2023/09/26 00:43:22;;;;;;;2.77;2.33;;;19.00;90.80;;;;;;5042571;28;20176;-89
2023/09/26 00:45:52;;;;;;;2.47;2.07;;;19.00;90.80;;;;;;5052113;28;20179;-88
2023/09/26 00:48:18;;;;;;;3.63;2.37;;;19.00;90.80;;;;;;5042394;28;20203;-89
2023/09/26 00:50:45;;;;;;;3.13;2.50;;;19.00;90.80;;;;;;5053061;28;20557;-89
2023/09/26 00:53:11;;;;;;;2.30;2.10;;;18.90;90.90;;;;;;5044592;28;20163;-89
2023/09/26 00:55:37;;;;;;;2.77;2.40;;;19.00;90.80;;;;;;5053453;28;20228;-89
2023/09/26 00:58:03;;;;;;;3.20;2.47;;;19.00;90.80;;;;;;5048843;28;20553;-89
2023/09/26 01:00:29;;;;;;;3.47;2.60;;;19.00;90.80;;;;;;5036914;28;20530;-88
2023/09/26 01:02:56;;;;;;;3.07;2.67;;;18.90;90.80;;;;;;5048312;28;20179;-88
2023/09/26 01:05:21;;;;;;;3.47;1.90;;;18.90;90.80;;;;;;5037002;28;20179;-88
2023/09/26 01:07:47;;;;;;;2.57;2.10;;;18.90;90.90;;;;;;5044711;28;20195;-88
2023/09/26 01:10:13;;;;;;;2.73;2.33;;;18.90;90.80;;;;;;5037616;28;20186;-88
2023/09/26 01:12:39;;;;;;;2.13;1.90;;;18.90;90.80;;;;;;5042022;28;20427;-88
2023/09/26 01:15:06;;;;;;;2.93;2.27;;;18.90;90.80;;;;;;5039851;28;20174;-88
2023/09/26 01:17:32;;;;;;;3.33;2.17;;;18.90;90.80;;;;;;5057224;28;20168;-89
2023/09/26 01:19:59;;;;;;;2.90;2.33;;;18.90;90.80;;;;;;5044052;28;20450;-88
2023/09/26 01:22:27;;;;;;;3.60;2.20;;;18.90;90.80;;;;;;5037593;28;20173;-89
2023/09/26 01:24:52;;;;;;;2.97;2.47;;;18.90;90.80;;;;;;5046151;28;20175;-89
2023/09/26 01:27:19;;;;;;;2.30;2.07;;;18.80;90.80;;;;;;5037116;28;20257;-88
2023/09/26 01:29:47;;;;;;;2.87;2.40;;;18.80;90.80;;;;;;5046931;28;20402;-89
2023/09/26 01:32:13;;;;;;;3.30;2.30;;;18.80;90.90;;;;;;5037044;28;20254;-88
2023/09/26 01:34:39;;;;;;;3.07;2.23;;;18.80;90.80;;;;;;5039265;28;20679;-88
2023/09/26 01:37:07;;;;;;;3.30;2.10;;;18.80;90.90;;;;;;5071582;28;20198;-88
2023/09/26 01:39:32;;;;;;;2.93;2.30;;;18.80;90.90;;;;;;5058338;28;20202;-88
2023/09/26 01:41:58;;;;;;;2.30;2.10;;;18.80;90.80;;;;;;5068026;28;20175;-88
2023/09/26 01:44:24;;;;;;;2.37;2.10;;;18.80;90.90;;;;;;5039710;28;20263;-89
2023/09/26 01:46:49;;;;;;;2.50;2.10;;;18.80;90.90;;;;;;5070666;28;20211;-89
2023/09/26 01:49:15;;;;;;;1.83;1.70;;;18.80;90.90;;;;;;5043961;28;20250;-90
2023/09/26 01:51:41;;;;;;;2.37;2.10;;;18.70;90.90;;;;;;5051653;28;20167;-89
2023/09/26 01:54:07;;;;;;;2.20;1.97;;;18.70;90.90;;;;;;5049514;28;20164;-89
2023/09/26 01:56:32;;;;;;;2.70;1.87;;;18.70;90.90;;;;;;5049873;28;20171;-89
2023/09/26 01:58:59;;;;;;;4.37;2.40;;;18.70;90.90;;;;;;5067656;28;20164;-89
2023/09/26 02:01:25;;;;;;;2.10;1.87;;;18.70;90.90;;;;;;5064322;28;20657;-89
2023/09/26 02:03:51;;;;;;;2.17;1.93;;;18.70;90.90;;;;;;5036662;28;20179;-89
2023/09/26 02:06:17;;;;;;;2.20;2.00;;;18.70;90.90;;;;;;5042620;28;20230;-90
2023/09/26 02:08:42;;;;;;;3.10;1.90;;;18.70;91.10;;;;;;5035044;28;20266;-90
2023/09/26 02:11:08;;;;;;;3.70;2.00;;;18.70;91.00;;;;;;5070747;28;20241;-89
2023/09/26 02:13:34;;;;;;;2.60;2.07;;;18.70;91.00;;;;;;5052265;28;20164;-89
2023/09/26 02:16:00;;;;;;;3.00;2.00;;;18.70;91.00;;;;;;5042524;28;20572;-89
2023/09/26 02:18:26;;;;;;;2.20;1.90;;;18.70;91.00;;;;;;5054383;28;20203;-89
2023/09/26 02:20:52;;;;;;;2.10;1.70;;;18.70;91.00;;;;;;5042032;28;20245;-89
2023/09/26 02:23:19;;;;;;;2.77;1.83;;;18.60;90.90;;;;;;5054893;28;20171;-88
2023/09/26 02:25:52;;;;;;;3.90;1.90;;;18.60;91.00;;;;;;5043053;28;20176;-88
2023/09/26 02:28:18;;;;;;;2.30;2.10;;;18.60;91.00;;;;;;5055273;28;20207;-89
2023/09/26 02:30:44;;;;;;;2.00;1.80;;;18.60;91.00;;;;;;5042606;28;20165;-88
2023/09/26 02:33:10;;;;;;;3.07;1.90;;;18.60;91.30;;;;;;5053626;28;20191;-89
2023/09/26 02:35:35;;;;;;;3.20;2.20;;;18.60;91.00;;;;;;5050765;28;20224;-89
2023/09/26 02:38:02;;;;;;;2.67;2.13;;;18.60;91.00;;;;;;5038951;28;20188;-89
2023/09/26 02:40:27;;;;;;;3.17;2.13;;;18.60;91.00;;;;;;5040787;28;20233;-89
2023/09/26 02:42:53;;;;;;;2.83;2.30;;;18.60;91.00;;;;;;5041959;28;20168;-89
2023/09/26 02:45:18;;;;;;;3.30;2.23;;;18.60;91.00;;;;;;5038576;28;20168;-89
2023/09/26 02:47:44;;;;;;;3.13;2.33;;;18.60;91.10;;;;;;5061023;28;20315;-89
2023/09/26 02:50:11;;;;;;;3.00;2.70;;;18.60;91.10;;;;;;5036262;28;20169;-89
2023/09/26 02:52:41;;;;;;;3.03;2.57;;;18.50;91.00;;;;;;5047476;28;20572;-89
2023/09/26 02:55:07;;;;;;;4.13;2.90;;;18.50;91.00;;;;;;5057364;28;20167;-89
2023/09/26 02:57:34;;;;;;;3.97;2.60;;;18.50;91.10;;;;;;5043746;28;20164;-89
2023/09/26 02:59:59;;;;;;;4.03;2.80;;;18.50;91.10;;;;;;5037038;28;20187;-89
2023/09/26 03:02:25;;;;;;;3.33;2.77;;;18.50;91.10;;;;;;5049065;28;20168;-89
2023/09/26 03:04:51;;;;;;;3.53;3.07;;;18.50;91.20;;;;;;5038209;28;20287;-88
2023/09/26 03:07:17;;;;;;;3.97;2.97;;;18.50;91.10;;;;;;5051115;28;20195;-89
2023/09/26 03:09:42;;;;;;;4.27;3.20;;;18.50;91.20;;;;;;5055554;28;20179;-89
2023/09/26 03:12:08;;;;;;;4.03;3.30;;;18.50;91.20;;;;;;5044604;28;20215;-89
2023/09/26 03:14:33;;;;;;;5.00;3.07;;;18.50;91.20;;;;;;5056405;28;20167;-89
2023/09/26 03:16:59;;;;;;;3.97;3.33;;;18.40;91.20;;;;;;5047799;28;20172;-89
2023/09/26 03:19:25;;;;;;;4.37;3.10;;;18.40;91.10;;;;;;5052218;28;20196;-89
2023/09/26 03:21:51;;;;;;;4.20;3.40;;;18.40;91.20;;;;;;5048299;28;20184;-89
2023/09/26 03:24:18;;;;;;;4.03;3.27;;;18.40;91.20;;;;;;5049682;28;20180;-89
2023/09/26 03:26:44;;;;;;;5.27;3.70;;;18.40;91.20;;;;;;5052428;28;20199;-89
2023/09/26 03:29:10;;;;;;;4.60;3.63;;;18.40;91.20;;;;;;5073742;28;20229;-89
2023/09/26 03:31:35;;;;;;;5.47;3.57;;;18.40;91.20;;;;;;5054439;28;20194;-89
2023/09/26 03:34:01;;;;;;;4.30;3.40;;;18.40;91.20;;;;;;5045971;28;20207;-89
2023/09/26 03:36:27;;;;;;;4.33;3.57;;;18.40;91.20;;;;;;5071987;28;20190;-89
2023/09/26 03:38:53;;;;;;;4.00;3.43;;;18.40;91.30;;;;;;5043876;28;20167;-89
2023/09/26 03:41:18;;;;;;;5.00;3.37;;;18.40;91.30;;;;;;5055452;28;20198;-88
2023/09/26 03:43:44;;;;;;;4.67;3.60;;;18.40;91.30;;;;;;5044302;28;20171;-89
2023/09/26 03:46:10;;;;;;;4.70;3.90;;;18.30;91.50;;;;;;5056509;28;20470;-89
2023/09/26 03:48:36;;;;;;;5.33;4.10;;;18.30;91.70;;;;;;5043591;28;20187;-89
2023/09/26 03:51:13;;;;;;;4.43;3.60;;;18.30;91.50;;;;;;5056029;28;20171;-89
2023/09/26 03:53:40;;;;;;;6.10;3.80;;;18.30;91.40;;;;;;5044490;28;20278;-89
2023/09/26 03:56:07;;;;;;;4.80;3.43;;;18.30;91.40;;;;;;5030535;28;20317;-89
2023/09/26 03:58:33;;;;;;;5.37;3.77;;;18.30;91.40;;;;;;5068769;28;20203;-89
2023/09/26 04:01:12;;;;;;;4.33;3.50;;;18.30;91.40;;;;;;5038189;28;20169;-90
2023/09/26 04:03:48;;;;;;;5.60;4.13;;;18.30;91.40;;;;;;5035668;28;20435;-89
2023/09/26 04:06:15;;;;;;;5.87;4.10;;;18.30;91.40;;;;;;5068987;28;20182;-89
2023/09/26 04:08:41;;;;;;;4.57;3.80;;;18.30;91.40;;;;;;5047293;28;20236;-89
2023/09/26 04:11:13;;;;;;;6.67;3.63;;;18.30;91.40;;;;;;5035577;28;20367;-89
2023/09/26 04:13:39;;;;;;;5.93;3.83;;;18.30;91.30;;;;;;5037162;28;20167;-89
2023/09/26 04:16:05;;;;;;;5.90;3.90;;;18.30;91.30;;;;;;5047821;28;20179;-89
2023/09/26 04:18:31;;;;;;;5.63;3.80;;;18.20;91.30;;;;;;5049685;28;20311;-89
2023/09/26 04:21:04;;;;;;;5.20;4.03;;;18.20;91.40;;;;;;5063319;28;20510;-89
2023/09/26 04:23:31;;;;;;;4.07;3.53;;;18.20;91.30;;;;;;5051197;28;20457;-89
2023/09/26 04:25:57;;;;;;;4.67;3.50;;;18.20;91.30;;;;;;5046244;28;20183;-89
2023/09/26 04:28:22;;;;;;;4.87;3.87;;;18.20;91.40;;;;;;5053295;28;20242;-89
2023/09/26 04:30:48;;;;;;;4.27;3.70;;;18.20;91.40;;;;;;5043753;28;20206;-89
2023/09/26 04:33:14;;;;;;;3.97;3.40;;;18.20;91.40;;;;;;5053432;28;20509;-89
2023/09/26 04:35:42;;;;;;;4.40;3.50;;;18.20;91.40;;;;;;5043922;28;20274;-89
2023/09/26 04:38:08;;;;;;;4.67;3.60;;;18.20;91.40;;;;;;5070869;28;20178;-88
2023/09/26 04:40:34;;;;;;;4.03;3.43;;;18.20;91.40;;;;;;5042746;28;20180;-89
2023/09/26 04:43:02;;;;;;;4.57;3.63;;;18.20;91.40;;;;;;5054478;28;20184;-89
2023/09/26 04:45:34;;;;;;;3.90;3.50;;;18.20;91.40;;;;;;5049301;28;20527;-88
2023/09/26 04:48:00;;;;;;;5.57;3.53;;;18.10;91.40;;;;;;5033582;28;20627;-88
2023/09/26 04:50:29;;;;;;;5.57;3.60;;;18.10;91.40;;;;;;5069808;28;20180;-88
2023/09/26 04:52:58;;;;;;;4.23;3.40;;;18.10;91.40;;;;;;5034747;28;20451;-88
2023/09/26 04:55:24;;;;;;;4.73;3.70;;;18.10;91.40;;;;;;5070816;28;20583;-88
2023/09/26 04:57:50;;;;;;;4.17;3.40;;;18.10;91.40;;;;;;5034945;28;20208;-89
2023/09/26 05:00:54;;;;;;;4.73;3.80;;;18.10;91.40;;;;;;5041221;28;20217;-89
2023/09/26 05:03:20;;;;;;;4.30;3.87;;;18.10;91.40;;;;;;5029511;28;20173;-88
2023/09/26 05:05:46;;;;;;;4.67;3.80;;;18.10;91.40;;;;;;5036929;28;20437;-89
2023/09/26 05:08:11;;;;;;;5.33;3.90;;;18.10;91.40;;;;;;5053208;28;20303;-89
2023/09/26 05:10:38;;;;;;;4.50;3.80;;;18.10;91.40;;;;;;5064054;28;20170;-88
2023/09/26 05:13:08;;;;;;;4.47;3.73;;;18.00;91.40;;;;;;5033523;28;20168;-88
2023/09/26 05:15:35;;;;;;;4.30;3.33;;;18.00;91.40;;;;;;5034102;28;20175;-88
2023/09/26 05:18:01;;;;;;;4.20;3.60;;;18.00;91.40;;;;;;5035367;28;20189;-88
2023/09/26 05:20:27;;;;;;;5.60;3.60;;;18.00;91.40;;;;;;5032451;28;20172;-89
2023/09/26 05:22:53;;;;;;;5.03;3.33;;;18.00;91.40;;;;;;5038067;28;20187;-89
2023/09/26 05:25:19;;;;;;;4.43;3.30;;;18.00;91.60;;;;;;5030572;28;20172;-89
2023/09/26 05:27:44;;;;;;;4.70;3.47;;;18.00;91.70;;;;;;5041195;28;20758;-89
2023/09/26 05:30:14;;;;;;;5.67;3.50;;;18.00;91.80;;;;;;5030555;28;20394;-89
2023/09/26 05:32:41;;;;;;;4.77;3.17;;;18.10;92.20;;;;;;5038762;28;20198;-89
2023/09/26 05:35:08;;;;;;;5.97;3.47;;;18.10;92.40;;;;;;5027309;28;20295;-89
2023/09/26 05:37:35;;;;;;;3.70;3.30;;;18.10;92.40;;;;;;5062742;28;20179;-89
2023/09/26 05:40:06;;;;;;;5.80;3.03;;;18.10;92.70;;;;;;5044198;28;20184;-89
2023/09/26 05:42:32;;;;;;;4.27;3.60;;;18.10;92.80;;;;;;5031681;28;20432;-89
2023/09/26 05:44:58;;;;;;;5.43;3.30;;;18.10;93.00;;;;;;5044486;28;20183;-88
2023/09/26 05:47:24;;;;;;;5.50;3.47;;;18.10;93.10;;;;;;5031524;28;20219;-90
2023/09/26 05:49:51;;;;;;;4.03;3.53;;;18.10;93.30;;;;;;5043273;28;20364;-90
2023/09/26 05:52:20;;;;;;;8.53;3.47;;;18.10;93.10;;;;;;5030251;28;20234;-90
2023/09/26 05:54:46;;;;;;;5.23;4.13;;;18.10;93.10;;;;;;5040156;28;20238;-89
2023/09/26 05:57:13;;;;;;;7.93;4.10;;;18.10;93.00;;;;;;5034123;28;20171;-90
2023/09/26 05:59:39;;;;;;;7.07;4.00;;;18.10;93.00;;;;;;5026708;28;20230;-87
2023/09/26 06:02:07;;;;;;;6.03;4.33;;;18.10;93.10;;;;;;5026218;28;20391;-87
2023/09/26 06:04:33;;;;;;;7.57;4.43;;;18.10;93.10;;;;;;5031007;28;20188;-88
2023/09/26 06:06:58;;;;;;;6.57;4.20;;;18.10;93.20;;;;;;5027831;28;20207;-87
2023/09/26 06:09:24;;;;;;;9.23;4.27;;;18.10;93.20;;;;;;5034119;28;20446;-87
2023/09/26 06:11:50;;;;;;;7.53;4.50;;;18.10;93.20;;;;;;5042033;28;20168;-87
2023/09/26 06:14:15;;;;;;;5.70;4.23;;;18.10;93.10;;;;;;5032437;28;20603;-87
2023/09/26 06:16:41;;;;;;;8.20;4.10;;;18.10;93.10;;;;;;5042616;28;20176;-87
2023/09/26 06:19:07;;;;;;;8.17;4.60;;;18.20;92.90;;;;;;5059479;28;20226;-87
2023/09/26 06:21:32;;;;;;;9.40;4.30;;;18.20;92.90;;;;;;5047796;28;20560;-87
2023/09/26 06:23:58;;;;;;;7.30;4.30;;;18.30;92.90;;;;;;5031811;28;20176;-87
2023/09/26 06:26:24;;;;;;;9.60;4.30;;;18.30;92.90;;;;;;5045307;28;20436;-87
2023/09/26 06:28:49;;;;;;;7.10;4.80;;;18.40;92.80;;;;;;5035202;28;20541;-87
2023/09/26 06:31:15;;;;;;;6.73;4.20;;;18.40;92.70;;;;;;5006060;28;20175;-87
2023/09/26 06:33:41;;;;;;;5.20;3.63;;;18.40;92.50;;;;;;5019839;28;20183;-87
2023/09/26 06:36:15;;;;;;;9.33;4.83;;;18.50;92.30;;;;;;5061903;28;20226;-87
2023/09/26 06:38:41;;;;;;;11.07;4.70;;;18.50;92.40;;;;;;5040330;28;20172;-87
2023/09/26 06:41:07;;;;;;;9.87;4.40;;;18.50;92.10;;;;;;5040906;28;20380;-87
2023/09/26 06:43:33;;;;;;;7.37;4.40;;;18.60;92.30;;;;;;5040087;28;20187;-87
2023/09/26 06:46:05;;;;;;;5.33;4.10;;;18.60;92.20;;;;;;5026181;28;20185;-87
2023/09/26 06:48:31;;;;;;;6.80;4.10;;;18.60;92.20;;;;;;5037421;28;20211;-87
2023/09/26 06:50:57;;;;;;;7.00;4.03;;;18.60;92.10;;;;;;5034787;28;20173;-87
2023/09/26 06:53:23;;;;;;;7.47;4.23;;;18.60;92.00;;;;;;5031351;28;20167;-87
2023/09/26 06:55:49;;;;;;;7.17;4.33;;;18.70;92.10;;;;;;5026401;28;20176;-87
2023/09/26 06:58:15;;;;;;;5.67;3.73;;;18.70;91.80;;;;;;5036126;28;20453;-87
2023/09/26 07:00:40;;;;;;;8.07;4.80;;;18.80;92.00;;;;;;5045901;28;20171;-88
2023/09/26 07:03:06;;;;;;;7.83;4.53;;;18.80;91.90;;;;;;5025886;28;20198;-88
2023/09/26 07:05:32;;;;;;;6.83;4.60;;;18.90;91.80;;;;;;5040189;28;20172;-88
2023/09/26 07:07:58;;;;;;;5.83;4.00;;;18.90;91.70;;;;;;5025871;28;20207;-88
2023/09/26 07:10:24;;;;;;;8.53;3.97;;;19.00;91.60;;;;;;5061116;28;20392;-88
2023/09/26 07:12:51;;;;;;;5.27;4.13;;;19.00;91.60;;;;;;5044348;28;20168;-88
2023/09/26 07:15:18;;;;;;;6.13;3.77;;;19.10;91.60;;;;;;5049294;28;20471;-88
2023/09/26 07:17:44;;;;;;;6.57;4.27;;;19.10;91.40;;;;;;5048047;28;20207;-88
2023/09/26 07:20:13;;;;;;;4.90;3.60;;;19.10;91.30;;;;;;5034152;28;20180;-88
2023/09/26 07:22:41;;;;;;;4.80;3.90;;;19.20;91.20;;;;;;5025130;28;20183;-88
2023/09/26 07:25:07;;;;;;;7.27;4.07;;;19.20;90.90;;;;;;5030395;28;20422;-89
2023/09/26 07:27:33;;;;;;;6.77;4.03;;;19.30;91.00;;;;;;5043392;28;20210;-88
2023/09/26 07:29:59;;;;;;;7.03;3.97;;;19.40;90.80;;;;;;5044860;28;20564;-88
2023/09/26 07:32:25;;;;;;;5.60;3.70;;;19.40;90.80;;;;;;5034194;28;20184;-88
2023/09/26 07:34:50;;;;;;;6.33;3.80;;;19.50;90.40;;;;;;5045308;28;20168;-88
2023/09/26 07:37:16;;;;;;;6.60;3.43;;;19.60;90.40;;;;;;5064085;28;20553;-88
2023/09/26 07:39:44;;;;;;;4.90;3.70;;;19.60;90.20;;;;;;5046077;28;20186;-88
2023/09/26 07:42:09;;;;;;;4.23;3.30;;;19.70;90.20;;;;;;5028870;28;20177;-88
2023/09/26 07:44:35;;;;;;;4.73;3.70;;;19.70;90.00;;;;;;5047656;28;20575;-89
2023/09/26 07:47:02;;;;;;;5.00;3.50;;;19.80;90.20;;;;;;5040684;28;20508;-88
2023/09/26 07:49:28;;;;;;;3.83;3.23;;;19.90;90.20;;;;;;5029638;28;20267;-88
2023/09/26 07:51:54;;;;;;;5.00;3.80;;;19.90;90.10;;;;;;5040220;28;20563;-88
2023/09/26 07:54:21;;;;;;;5.07;3.70;;;20.00;89.10;;;;;;5061967;28;20164;-88
2023/09/26 07:56:46;;;;;;;5.07;3.60;;;20.10;89.80;;;;;;5040169;28;20175;-89
2023/09/26 07:59:12;;;;;;;6.30;3.47;;;20.10;90.10;;;;;;5028676;28;20176;-89
2023/09/26 08:01:38;;;;;;;3.83;3.07;;;20.20;90.20;;;;;;5039899;28;20175;-89
2023/09/26 08:04:04;;;;;;;6.20;3.47;;;20.30;90.10;;;;;;5028842;28;20538;-89
2023/09/26 08:06:30;;;;;;;4.00;3.10;;;20.30;90.20;;;;;;5038160;28;20171;-89
2023/09/26 08:08:57;;;;;;;4.43;3.33;;;20.40;90.20;;;;;;5039382;28;20294;-89
2023/09/26 08:11:27;;;;;;;4.67;3.37;;;20.40;90.10;;;;;;5030266;28;20689;-89
2023/09/26 08:13:54;;;;;;;4.93;3.53;;;20.50;90.10;;;;;;5059978;28;20248;-90
2023/09/26 08:16:21;;;;;;;5.53;3.63;;;20.60;89.90;;;;;;5041354;28;20168;-89
2023/09/26 08:18:49;;;;;;;5.20;3.70;;;20.70;90.00;;;;;;5033722;28;20181;-89
2023/09/26 08:21:15;;;;;;;4.80;3.40;;;20.80;89.80;;;;;;5043383;28;20583;-89
2023/09/26 08:23:40;;;;;;;4.00;3.10;;;21.00;89.80;;;;;;5041281;28;20172;-88
2023/09/26 08:26:10;;;;;;;4.93;3.40;;;21.10;88.40;;;;;;5042654;28;20242;-89
2023/09/26 08:28:36;;;;;;;3.87;3.27;;;21.30;87.60;;;;;;5034142;28;20198;-89
2023/09/26 08:31:05;;;;;;;4.00;3.60;;;21.40;87.20;;;;;;5047729;28;20541;-89
2023/09/26 08:33:30;;;;;;;3.60;3.10;;;21.50;86.80;;;;;;5037493;28;20195;-89
2023/09/26 08:35:57;;;;;;;3.10;2.80;;;21.50;86.20;;;;;;5046459;28;20376;-89
2023/09/26 08:38:23;;;;;;;4.40;3.20;;;21.50;86.30;;;;;;5036753;28;20195;-88
2023/09/26 08:40:52;;;;;;;4.27;2.60;;;21.50;86.60;;;;;;5026008;28;20227;-89
2023/09/26 08:43:26;;;;;;;3.20;2.90;;;21.50;87.40;;;;;;5038535;28;20378;-88
2023/09/26 08:45:53;;;;;;;2.97;2.57;;;21.50;87.40;;;;;;5026866;28;20256;-88
2023/09/26 08:48:19;;;;;;;2.97;2.67;;;21.50;87.60;;;;;;5062147;28;20219;-88
2023/09/26 08:50:44;;;;;;;3.83;2.70;;;21.50;87.60;;;;;;5026657;28;20530;-88
2023/09/26 08:53:10;;;;;;;3.50;2.70;;;21.40;87.50;;;;;;5035053;28;20175;-89
2023/09/26 08:55:39;;;;;;;4.27;2.70;;;21.40;87.60;;;;;;5033366;28;20664;-89
2023/09/26 08:58:06;;;;;;;3.73;2.70;;;21.50;87.20;;;;;;5039707;28;20373;-89
2023/09/26 09:00:32;;;;;;;2.90;2.40;;;21.50;87.70;;;;;;5041705;28;20210;-89
2023/09/26 09:02:57;;;;;;;3.67;2.60;;;21.40;86.70;;;;;;5044010;28;20531;-89
2023/09/26 09:05:24;;;;;;;4.07;3.00;;;21.40;87.10;;;;;;5039400;28;20167;-89
2023/09/26 09:07:50;;;;;;;3.37;2.47;;;21.40;86.60;;;;;;5040439;28;20490;-89
2023/09/26 09:10:19;;;;;;;5.03;2.83;;;21.50;87.50;;;;;;5038538;28;20180;-89
2023/09/26 09:12:50;;;;;;;3.40;2.67;;;21.50;86.70;;;;;;5060913;28;20167;-88
2023/09/26 09:15:15;;;;;;;4.00;2.50;;;21.60;86.20;;;;;;5038501;28;20451;-89
2023/09/26 09:17:46;;;;;;;2.83;2.30;;;21.50;86.70;;;;;;5026512;28;20605;-89
2023/09/26 09:20:18;;;;;;;4.20;2.73;;;21.50;86.80;;;;;;5035137;28;20229;-88
2023/09/26 09:22:48;;;;;;;2.97;2.43;;;21.60;87.40;;;;;;5026853;28;20175;-88
2023/09/26 09:25:15;;;;;;;3.47;2.60;;;21.60;87.40;;;;;;5057092;28;20164;-88
2023/09/26 09:27:43;;;;;;;2.90;2.57;;;21.70;87.30;;;;;;5043307;28;20675;-88
2023/09/26 09:30:12;;;;;;;3.93;2.40;;;21.60;86.20;;;;;;5037681;28;20222;-89
2023/09/26 09:32:42;;;;;;;3.20;2.40;;;21.70;87.20;;;;;;5030321;28;20184;-89
2023/09/26 09:35:14;;;;;;;2.43;2.23;;;21.70;87.10;;;;;;5040762;28;20304;-89
2023/09/26 09:37:47;;;;;;;3.00;2.20;;;21.70;86.70;;;;;;5026835;28;20219;-89
2023/09/26 09:40:20;;;;;;;2.47;2.27;;;21.70;86.70;;;;;;5039587;28;20284;-89
2023/09/26 09:42:48;;;;;;;3.50;2.43;;;21.80;86.70;;;;;;5060256;28;20203;-89
2023/09/26 09:45:14;;;;;;;4.43;2.47;;;21.80;86.50;;;;;;5039340;28;20179;-89
2023/09/26 09:47:43;;;;;;;2.57;2.10;;;21.80;85.70;;;;;;5044671;28;20172;-89
2023/09/26 09:50:11;;;;;;;4.43;2.10;;;21.90;87.40;;;;;;5035969;28;20176;-88
2023/09/26 09:52:44;;;;;;;2.83;2.30;;;22.00;86.70;;;;;;5030273;28;20168;-89
2023/09/26 09:55:18;;;;;;;3.60;2.23;;;22.10;87.60;;;;;;5050341;28;20210;-89
2023/09/26 09:57:49;;;;;;;3.17;2.10;;;22.20;87.30;;;;;;5021169;28;20204;-89
2023/09/26 10:00:15;;;;;;;3.45;2.10;;;22.30;86.40;;;;;;5024058;28;20515;-89
2023/09/26 10:02:41;;;;;;;2.53;2.00;;;22.50;86.50;;;;;;5027675;28;20463;-89
2023/09/26 10:05:12;;;;;;;2.42;2.22;;;22.60;85.10;;;;;;5028806;28;20180;-88
2023/09/26 10:07:40;;;;;;;4.07;2.20;;;22.60;83.20;;;;;;5031113;28;20421;-88
2023/09/26 10:10:09;;;;;;;2.73;2.10;;;22.70;83.20;;;;;;5059565;28;20190;-89
2023/09/26 10:12:37;;;;;;;2.87;1.90;;;22.70;82.70;;;;;;5035263;28;20176;-89
2023/09/26 10:15:05;;;;;;;2.95;1.90;;;22.70;82.50;;;;;;5028273;28;20338;-89
2023/09/26 10:17:32;;;;;;;3.08;2.00;;;22.80;82.80;;;;;;5035793;28;20576;-88
2023/09/26 10:19:58;;;;;;;2.00;1.80;;;22.70;81.80;;;;;;5043287;28;20652;-89
2023/09/26 10:22:32;;;;;;;4.35;2.03;;;22.70;81.60;;;;;;5048081;28;20168;-89
2023/09/26 10:25:00;;;;;;;2.30;2.00;;;22.70;81.50;;;;;;5042556;28;20648;-89
2023/09/26 10:27:32;;;;;;;2.35;1.90;;;22.70;81.30;;;;;;5037711;28;20260;-89
2023/09/26 10:30:00;;;;;;;2.38;2.00;;;22.70;81.40;;;;;;5022711;28;20402;-89
2023/09/26 10:32:36;;;;;;;3.35;1.90;;;22.70;81.00;;;;;;5032061;28;20188;-89
2023/09/26 10:35:13;;;;;;;3.33;1.90;;;22.70;80.90;;;;;;5023215;28;20603;-89
2023/09/26 10:37:48;;;;;;;2.40;2.10;;;22.80;80.60;;;;;;5032410;28;20257;-89
2023/09/26 10:40:15;;;;;;;2.45;1.98;;;22.90;79.90;;;;;;5044788;28;20171;-89
2023/09/26 10:42:48;;;;;;;2.63;1.90;;;22.90;80.70;;;;;;5036307;28;20168;-89
2023/09/26 10:45:14;;;;;;;2.33;1.90;;;22.90;80.30;;;;;;5024855;28;20200;-89
2023/09/26 10:47:40;;;;;;;2.00;1.80;;;22.80;80.00;;;;;;5036361;28;20612;-89
2023/09/26 10:50:13;;;;;;;2.20;1.98;;;22.60;80.70;;;;;;5040755;28;20411;-89
2023/09/26 10:52:46;;;;;;;2.03;1.80;;;22.60;81.20;;;;;;5026232;28;20588;-89
2023/09/26 10:55:22;;;;;;;1.98;1.80;;;22.50;81.70;;;;;;5043532;28;20179;-89
2023/09/26 10:57:50;;;;;;;2.70;1.73;;;22.50;81.30;;;;;;5048760;28;20206;-89
2023/09/26 11:00:17;;;;;;;2.20;2.00;;;22.50;81.40;;;;;;5053878;28;20179;-89
2023/09/26 11:02:45;;;;;;;1.90;1.70;;;22.50;81.70;;;;;;5029242;28;20237;-89
2023/09/26 11:05:13;;;;;;;1.83;1.50;;;22.50;81.70;;;;;;5020563;28;20251;-89
2023/09/26 11:07:41;;;;;;;2.47;1.80;;;22.60;81.20;;;;;;5028952;28;20280;-89
2023/09/26 11:10:17;;;;;;;3.07;1.80;;;22.60;80.60;;;;;;5024402;28;20199;-89
2023/09/26 11:12:44;;;;;;;1.90;1.70;;;22.70;78.30;;;;;;5057134;28;20632;-89
2023/09/26 11:15:10;;;;;;;2.67;1.80;;;22.70;78.60;;;;;;5029576;28;20212;-89
2023/09/26 11:17:37;;;;;;;2.57;1.60;;;22.70;78.30;;;;;;5031513;28;20199;-89
2023/09/26 11:20:11;;;;;;;2.50;1.70;;;22.70;78.20;;;;;;5050138;28;20177;-89
2023/09/26 11:22:48;;;;;;;2.60;1.67;;;22.70;78.00;;;;;;5027431;28;20229;-89
2023/09/26 11:25:15;;;;;;;2.10;1.90;;;22.70;78.00;;;;;;5030929;28;20203;-89
2023/09/26 11:27:48;;;;;;;3.03;1.80;;;22.60;78.20;;;;;;5027929;28;20180;-89
2023/09/26 11:30:17;;;;;;;3.17;1.77;;;22.60;78.80;;;;;;5032733;28;20298;-90
2023/09/26 11:32:46;;;;;;;3.83;1.67;;;22.50;78.90;;;;;;5025912;28;20290;-89
2023/09/26 11:35:14;;;;;;;4.47;1.70;;;22.60;79.10;;;;;;5035437;28;20970;-89
2023/09/26 11:37:40;;;;;;;2.10;1.73;;;22.60;79.20;;;;;;5025014;28;20469;-89
2023/09/26 11:40:19;;;;;;;1.87;1.60;;;22.60;76.70;;;;;;5049730;28;20625;-88
2023/09/26 11:42:46;;;;;;;3.93;1.53;;;22.70;76.90;;;;;;5046122;28;20164;-88
2023/09/26 11:45:26;;;;;;;4.30;1.80;;;22.80;74.90;;;;;;5037301;28;20580;-89
2023/09/26 11:47:59;;;;;;;5.30;1.80;;;22.80;75.70;;;;;;5048669;28;20171;-89
2023/09/26 11:50:27;;;;;;;1.83;1.57;;;22.70;76.40;;;;;;5038121;28;20532;-89
2023/09/26 11:52:56;;;;;;;2.30;2.03;;;22.60;76.60;;;;;;5027810;28;20172;-89
2023/09/26 11:55:22;;;;;;;2.80;1.77;;;22.60;76.50;;;;;;5033839;28;20847;-89
2023/09/26 11:57:51;;;;;;;2.13;1.63;;;22.60;77.10;;;;;;5027811;28;20222;-89
2023/09/26 12:00:19;;;;;;;2.30;1.70;;;22.60;77.70;;;;;;5062980;28;20331;-89
2023/09/26 12:02:46;;;;;;;2.03;1.70;;;22.50;77.70;;;;;;5047990;28;20489;-90
2023/09/26 12:05:13;;;;;;;2.37;1.60;;;22.60;77.90;;;;;;5033886;28;20173;-88
2023/09/26 12:07:42;;;;;;;3.00;1.40;;;22.50;77.90;;;;;;5049367;28;20442;-89
2023/09/26 12:10:10;;;;;;;1.93;1.50;;;22.60;77.80;;;;;;5037583;28;20184;-88
2023/09/26 12:12:37;;;;;;;2.43;1.67;;;22.60;77.80;;;;;;5047822;28;20557;-88
2023/09/26 12:15:22;;;;;;;1.83;1.50;;;22.60;74.50;;;;;;5038565;28;20572;-88
2023/09/26 12:17:49;;;;;;;2.73;1.50;;;22.80;76.10;;;;;;5026600;28;20210;-87
2023/09/26 12:20:21;;;;;;;1.60;1.50;;;22.70;76.00;;;;;;5033242;28;20273;-89
2023/09/26 12:22:57;;;;;;;2.47;1.60;;;22.70;76.70;;;;;;5028728;28;20205;-88
2023/09/26 12:25:27;;;;;;;2.20;1.80;;;22.60;76.80;;;;;;5041685;28;20191;-87
2023/09/26 12:27:54;;;;;;;2.40;1.63;;;22.50;77.40;;;;;;5028840;28;20183;-88
2023/09/26 12:30:20;;;;;;;1.90;1.30;;;22.50;77.80;;;;;;5033506;28;20167;-88
2023/09/26 12:32:47;;;;;;;1.77;1.50;;;22.50;78.20;;;;;;5030359;28;20192;-88
2023/09/26 12:35:13;;;;;;;2.80;1.57;;;22.50;78.40;;;;;;5027851;28;20229;-88
2023/09/26 12:37:41;;;;;;;1.60;1.40;;;22.40;78.60;;;;;;5031111;28;20207;-88
2023/09/26 12:40:12;;;;;;;1.70;1.57;;;22.40;79.00;;;;;;5025894;28;20171;-88
2023/09/26 12:42:38;;;;;;;2.23;1.63;;;22.40;79.00;;;;;;5036009;28;20298;-88
2023/09/26 12:45:06;;;;;;;3.77;1.63;;;22.40;78.90;;;;;;5043898;28;20705;-88
2023/09/26 12:47:33;;;;;;;1.83;1.60;;;22.40;78.90;;;;;;5031911;28;20283;-88
2023/09/26 12:50:03;;;;;;;2.57;1.60;;;22.60;77.20;;;;;;5041759;28;20192;-88